createdAt,value
2022-12-23T00:01:19.682Z,97797.91
2022-12-23T00:03:46.452Z,97796.91
2022-12-23T00:06:15.811Z,97797.66
2022-12-23T00:08:43.373Z,97795.75
2022-12-23T00:11:14.480Z,97807.34
2022-12-23T00:13:57.341Z,97787.53
2022-12-23T00:16:24.058Z,97790.25
2022-12-23T00:18:50.748Z,97791.78
2022-12-23T00:21:18.175Z,97786.47
2022-12-23T00:23:47.818Z,97778.34
2022-12-23T00:26:22.415Z,97778.72
2022-12-23T00:28:52.491Z,97777.19
2022-12-23T00:31:19.957Z,97790.16
2022-12-23T00:33:49.541Z,97775.31
2022-12-23T00:36:22.716Z,97772.44
2022-12-23T00:39:05.622Z,97771.63
2022-12-23T00:41:47.971Z,97769.81
2022-12-23T00:44:14.697Z,97768.63
2022-12-23T00:46:41.469Z,97759.63
2022-12-23T00:49:23.408Z,97758.19
2022-12-23T00:51:53.466Z,97755.78
2022-12-23T00:54:20.134Z,97761.94
2022-12-23T00:56:46.795Z,97762.94
2022-12-23T00:59:13.437Z,97761.53
2022-12-23T01:01:55.638Z,97758.09
2022-12-23T01:04:37.813Z,97762.50
2022-12-23T01:07:05.482Z,97750.72
2022-12-23T01:09:32.170Z,97751.31
2022-12-23T01:11:58.841Z,97763.66
2022-12-23T01:14:25.858Z,97758.31
2022-12-23T01:16:52.892Z,97767.50
2022-12-23T01:19:19.551Z,97765.09
2022-12-23T01:21:46.213Z,97759.06
2022-12-23T01:24:12.908Z,97752.22
2022-12-23T01:26:39.548Z,97745.38
2022-12-23T01:29:06.149Z,97736.56
2022-12-23T01:31:32.809Z,97736.44
2022-12-23T01:33:59.500Z,97741.44
2022-12-23T01:36:26.214Z,97745.19
2022-12-23T01:38:52.854Z,97746.81
2022-12-23T01:41:43.084Z,97738.84
2022-12-23T01:44:40.236Z,97731.72
2022-12-23T01:47:12.283Z,97729.72
2022-12-23T01:49:40.237Z,97727.31
2022-12-23T01:52:07.066Z,97735.53
2022-12-23T01:54:35.098Z,97723.44
2022-12-23T01:57:01.903Z,97730.47
2022-12-23T01:59:43.805Z,97732.09
2022-12-23T02:02:25.898Z,97733.16
2022-12-23T02:04:53.680Z,97729.50
2022-12-23T02:07:36.381Z,97731.09
2022-12-23T02:10:04.689Z,97728.22
2022-12-23T02:12:46.824Z,97731.47
2022-12-23T02:15:48.138Z,97719.22
2022-12-23T02:18:36.265Z,97715.63
2022-12-23T02:21:18.087Z,97725.44
2022-12-23T02:24:04.583Z,97719.06
2022-12-23T02:26:50.844Z,97721.28
2022-12-23T02:29:49.869Z,97714.63
2022-12-23T02:32:45.608Z,97706.97
2022-12-23T02:35:30.714Z,97704.25
2022-12-23T02:38:05.024Z,97702.44
2022-12-23T02:40:58.915Z,97707.84
2022-12-23T02:43:29.994Z,97699.41
2022-12-23T02:45:56.670Z,97707.59
2022-12-23T02:48:30.020Z,97710.31
2022-12-23T02:50:59.139Z,97707.03
2022-12-23T02:53:30.875Z,97702.00
2022-12-23T02:56:00.261Z,97705.41
2022-12-23T02:58:32.151Z,97702.00
2022-12-23T03:01:01.317Z,97700.00
2022-12-23T03:03:28.482Z,97699.22
2022-12-23T03:05:56.024Z,97698.03
2022-12-23T03:08:27.995Z,97699.66
2022-12-23T03:11:05.540Z,97690.78
2022-12-23T03:14:02.641Z,97697.03
2022-12-23T03:17:08.109Z,97690.19
2022-12-23T03:20:03.112Z,97688.41
2022-12-23T03:22:45.285Z,97693.38
2022-12-23T03:25:21.671Z,97700.56
2022-12-23T03:28:04.650Z,97697.75
2022-12-23T03:30:33.133Z,97691.09
2022-12-23T03:33:05.307Z,97699.13
2022-12-23T03:35:39.935Z,97705.00
2022-12-23T03:38:07.738Z,97700.75
2022-12-23T03:40:39.105Z,97701.72
2022-12-23T03:43:12.113Z,97690.72
2022-12-23T03:45:46.684Z,97692.41
2022-12-23T03:48:30.570Z,97690.81
2022-12-23T03:51:03.226Z,97697.06
2022-12-23T03:53:34.569Z,97696.09
2022-12-23T03:56:07.222Z,97686.81
2022-12-23T03:58:54.761Z,97692.88
2022-12-23T04:01:32.448Z,97692.22
2022-12-23T04:04:26.413Z,97689.00
2022-12-23T04:07:00.916Z,97692.03
2022-12-23T04:09:28.800Z,97695.00
2022-12-23T04:11:58.129Z,97696.19
2022-12-23T04:14:24.818Z,97698.06
2022-12-23T04:16:55.134Z,97695.41
2022-12-23T04:19:22.086Z,97692.69
2022-12-23T04:21:48.821Z,97683.75
2022-12-23T04:24:15.509Z,97682.19
2022-12-23T04:26:43.407Z,97679.03
2022-12-23T04:29:13.244Z,97669.91
2022-12-23T04:31:39.931Z,97662.59
2022-12-23T04:34:06.566Z,97673.16
2022-12-23T04:36:33.449Z,97678.28
2022-12-23T04:39:02.143Z,97666.78
2022-12-23T04:41:28.827Z,97676.97
2022-12-23T04:43:55.454Z,97674.44
2022-12-23T04:46:22.127Z,97681.94
2022-12-23T04:48:48.790Z,97678.94
2022-12-23T04:51:15.443Z,97673.03
2022-12-23T04:53:45.255Z,97675.91
2022-12-23T04:56:11.905Z,97672.25
2022-12-23T04:58:38.603Z,97673.63
2022-12-23T05:01:07.791Z,97673.81
2022-12-23T05:03:34.663Z,97678.22
2022-12-23T05:06:01.690Z,97685.03
2022-12-23T05:08:28.365Z,97683.47
2022-12-23T05:10:55.186Z,97679.22
2022-12-23T05:13:22.358Z,97680.78
2022-12-23T05:15:51.240Z,97677.72
2022-12-23T05:18:17.946Z,97682.16
2022-12-23T05:20:44.553Z,97679.34
2022-12-23T05:23:11.520Z,97686.22
2022-12-23T05:25:39.184Z,97688.81
2022-12-23T05:28:09.537Z,97689.63
2022-12-23T05:30:36.217Z,97684.78
2022-12-23T05:33:03.000Z,97685.56
2022-12-23T05:35:29.637Z,97691.44
2022-12-23T05:37:57.793Z,97688.00
2022-12-23T05:40:27.330Z,97696.66
2022-12-23T05:42:59.249Z,97692.41
2022-12-23T05:45:25.964Z,97690.00
2022-12-23T05:47:52.834Z,97689.00
2022-12-23T05:50:19.476Z,97694.03
2022-12-23T05:52:46.133Z,97691.44
2022-12-23T05:55:12.771Z,97690.25
2022-12-23T05:57:39.426Z,97694.66
2022-12-23T06:00:06.897Z,97687.44
2022-12-23T06:02:33.698Z,97685.28
2022-12-23T06:05:00.397Z,97683.06
2022-12-23T06:07:27.020Z,97684.69
2022-12-23T06:09:53.742Z,97688.53
2022-12-23T06:12:20.413Z,97684.56
2022-12-23T06:14:47.414Z,97686.19
2022-12-23T06:17:14.448Z,97685.63
2022-12-23T06:19:41.212Z,97676.97
2022-12-23T06:22:07.813Z,97680.00
2022-12-23T06:24:34.480Z,97681.44
2022-12-23T06:27:01.140Z,97677.00
2022-12-23T06:29:27.973Z,97695.50
2022-12-23T06:31:54.708Z,97693.31
2022-12-23T06:34:21.578Z,97689.34
2022-12-23T06:36:48.687Z,97690.31
2022-12-23T06:39:15.385Z,97697.97
2022-12-23T06:41:41.992Z,97700.22
2022-12-23T06:44:09.397Z,97699.09
2022-12-23T06:46:36.409Z,97706.53
2022-12-23T06:49:10.919Z,97704.78
2022-12-23T06:51:39.625Z,97710.78
2022-12-23T06:54:06.535Z,97706.16
2022-12-23T06:56:33.893Z,97709.97
2022-12-23T06:59:00.500Z,97720.25
2022-12-23T07:01:27.164Z,97719.63
2022-12-23T07:03:53.819Z,97720.63
2022-12-23T07:06:20.572Z,97728.47
2022-12-23T07:08:47.173Z,97723.63
2022-12-23T07:11:13.826Z,97717.75
2022-12-23T07:13:41.030Z,97736.09
2022-12-23T07:16:09.256Z,97733.47
2022-12-23T07:18:36.518Z,97740.06
2022-12-23T07:21:03.694Z,97749.34
2022-12-23T07:23:30.968Z,97755.56
2022-12-23T07:25:57.628Z,97757.84
2022-12-23T07:28:24.536Z,97755.13
2022-12-23T07:30:51.381Z,97756.91
2022-12-23T07:33:18.279Z,97753.31
2022-12-23T07:35:44.928Z,97749.91
2022-12-23T07:38:11.612Z,97738.22
2022-12-23T07:40:38.276Z,97759.56
2022-12-23T07:43:05.689Z,97761.38
2022-12-23T07:45:32.372Z,97755.88
2022-12-23T07:48:01.391Z,97759.63
2022-12-23T07:50:28.508Z,97766.59
2022-12-23T07:52:55.967Z,97768.81
2022-12-23T07:55:22.938Z,97763.88
2022-12-23T07:57:50.915Z,97761.91
2022-12-23T08:00:19.001Z,97758.50
2022-12-23T08:02:46.379Z,97747.19
2022-12-23T08:05:14.393Z,97749.00
2022-12-23T08:07:41.348Z,97758.66
2022-12-23T08:10:08.747Z,97753.16
2022-12-23T08:12:35.374Z,97769.06
2022-12-23T08:15:02.069Z,97762.84
2022-12-23T08:17:30.110Z,97765.88
2022-12-23T08:19:57.349Z,97764.06
2022-12-23T08:22:24.687Z,97766.06
2022-12-23T08:24:52.633Z,97771.91
2022-12-23T08:27:19.404Z,97772.31
2022-12-23T08:29:49.260Z,97770.69
2022-12-23T08:32:15.848Z,97773.91
2022-12-23T08:34:42.505Z,97777.16
2022-12-23T08:37:09.244Z,97784.00
2022-12-23T08:39:36.028Z,97787.22
2022-12-23T08:42:03.824Z,97787.22
2022-12-23T08:44:31.110Z,97795.69
2022-12-23T08:46:57.931Z,97777.41
2022-12-23T08:49:24.600Z,97777.88
2022-12-23T08:51:51.414Z,97788.81
2022-12-23T08:54:22.244Z,97777.59
2022-12-23T08:56:48.885Z,97776.56
2022-12-23T08:59:19.684Z,97766.09
2022-12-23T09:01:47.673Z,97770.56
2022-12-23T09:04:14.639Z,97777.91
2022-12-23T09:06:42.737Z,97784.53
2022-12-23T09:09:12.992Z,97784.09
2022-12-23T09:11:40.063Z,97778.56
2022-12-23T09:14:08.565Z,97773.31
2022-12-23T09:16:35.591Z,97778.97
2022-12-23T09:19:02.565Z,97781.56
2022-12-23T09:21:29.365Z,97773.84
2022-12-23T09:23:56.075Z,97770.22
2022-12-23T09:26:26.607Z,97775.44
2022-12-23T09:28:53.442Z,97774.91
2022-12-23T09:31:21.081Z,97772.06
2022-12-23T09:33:49.463Z,97780.56
2022-12-23T09:36:16.682Z,97779.13
2022-12-23T09:38:43.616Z,97776.50
2022-12-23T09:41:46.357Z,97777.69
2022-12-23T09:44:28.449Z,97791.03
2022-12-23T09:46:59.997Z,97785.41
2022-12-23T09:49:27.480Z,97798.72
2022-12-23T09:52:00.280Z,97786.28
2022-12-23T09:54:31.001Z,97784.22
2022-12-23T09:57:04.039Z,97788.63
2022-12-23T09:59:31.621Z,97783.06
2022-12-23T10:02:05.081Z,97783.88
2022-12-23T10:04:37.334Z,97786.28
2022-12-23T10:07:17.559Z,97787.56
2022-12-23T10:09:47.589Z,97784.41
2022-12-23T10:12:27.736Z,97785.25
2022-12-23T10:14:59.414Z,97792.53
2022-12-23T10:17:30.811Z,97789.34
2022-12-23T10:20:01.647Z,97795.00
2022-12-23T10:22:41.108Z,97799.81
2022-12-23T10:25:17.847Z,97797.84
2022-12-23T10:27:45.209Z,97811.75
2022-12-23T10:30:42.454Z,97803.88
2022-12-23T10:33:23.149Z,97793.81
2022-12-23T10:36:15.393Z,97800.06
2022-12-23T10:39:00.103Z,97802.06
2022-12-23T10:41:57.281Z,97798.84
2022-12-23T10:44:49.539Z,97797.63
2022-12-23T10:47:25.400Z,97802.69
2022-12-23T10:50:22.611Z,97800.25
2022-12-23T10:52:50.452Z,97801.66
2022-12-23T10:55:31.379Z,97802.66
2022-12-23T10:58:06.752Z,97803.66
2022-12-23T11:00:38.172Z,97800.47
2022-12-23T11:03:18.091Z,97795.63
2022-12-23T11:05:46.149Z,97805.91
2022-12-23T11:08:12.894Z,97798.84
2022-12-23T11:10:40.217Z,97799.63
2022-12-23T11:13:07.076Z,97791.75
2022-12-23T11:15:38.494Z,97797.00
2022-12-23T11:18:06.711Z,97797.84
2022-12-23T11:20:35.788Z,97790.53
2022-12-23T11:23:04.965Z,97789.09
2022-12-23T11:25:46.920Z,97787.66
2022-12-23T11:28:17.427Z,97781.94
2022-12-23T11:31:08.110Z,97784.88
2022-12-23T11:33:39.989Z,97781.59
2022-12-23T11:36:15.917Z,97776.97
2022-12-23T11:39:17.880Z,97769.47
2022-12-23T11:41:49.280Z,97780.81
2022-12-23T11:44:34.271Z,97777.59
2022-12-23T11:47:19.436Z,97780.84
2022-12-23T11:49:49.688Z,97778.44
2022-12-23T11:52:20.914Z,97770.16
2022-12-23T11:54:54.953Z,97764.22
2022-12-23T11:57:38.247Z,97762.00
2022-12-23T12:00:08.619Z,97762.66
2022-12-23T12:02:41.818Z,97763.03
2022-12-23T12:05:22.979Z,97760.81
2022-12-23T12:07:51.061Z,97756.22
2022-12-23T12:10:25.561Z,97757.22
2022-12-23T12:12:56.588Z,97769.72
2022-12-23T12:15:40.428Z,97763.28
2022-12-23T12:18:11.964Z,97760.28
2022-12-23T12:20:45.613Z,97763.25
2022-12-23T12:23:22.623Z,97767.50
2022-12-23T12:25:59.878Z,97757.00
2022-12-23T12:28:37.672Z,97753.97
2022-12-23T12:31:26.797Z,97746.72
2022-12-23T12:33:57.533Z,97749.75
2022-12-23T12:36:39.467Z,97746.91
2022-12-23T12:39:18.103Z,97749.91
2022-12-23T12:41:58.435Z,97747.28
2022-12-23T12:44:38.231Z,97737.22
2022-12-23T12:47:36.306Z,97742.03
2022-12-23T12:50:06.568Z,97732.75
2022-12-23T12:52:40.674Z,97740.22
2022-12-23T12:55:21.903Z,97743.63
2022-12-23T12:57:48.736Z,97734.28
2022-12-23T13:00:20.128Z,97727.81
2022-12-23T13:02:47.831Z,97732.28
2022-12-23T13:05:30.975Z,97733.31
2022-12-23T13:08:14.769Z,97733.13
2022-12-23T13:10:49.759Z,97737.59
2022-12-23T13:13:42.155Z,97737.81
2022-12-23T13:16:36.503Z,97735.00
2022-12-23T13:19:19.427Z,97728.13
2022-12-23T13:21:56.420Z,97727.94
2022-12-23T13:24:53.406Z,97729.13
2022-12-23T13:27:41.683Z,97721.47
2022-12-23T13:30:13.252Z,97717.81
2022-12-23T13:33:10.617Z,97718.06
2022-12-23T13:35:52.594Z,97716.47
2022-12-23T13:38:49.758Z,97709.81
2022-12-23T13:41:39.572Z,97707.00
2022-12-23T13:44:09.656Z,97694.84
2022-12-23T13:46:37.348Z,97699.50
2022-12-23T13:49:24.391Z,97697.25
2022-12-23T13:51:51.990Z,97701.28
2022-12-23T13:54:33.891Z,97705.03
2022-12-23T13:57:09.567Z,97699.13
2022-12-23T13:59:41.152Z,97702.41
2022-12-23T14:02:38.508Z,97698.53
2022-12-23T14:05:10.500Z,97699.13
2022-12-23T14:07:44.594Z,97695.09
2022-12-23T14:10:21.621Z,97678.16
2022-12-23T14:12:49.983Z,97685.41
2022-12-23T14:15:32.023Z,97662.19
2022-12-23T14:18:29.279Z,97663.00
2022-12-23T14:21:04.751Z,97652.38
2022-12-23T14:24:05.452Z,97651.38
2022-12-23T14:26:50.347Z,97648.38
2022-12-23T14:29:52.020Z,97652.81
2022-12-23T14:32:26.700Z,97643.94
2022-12-23T14:35:18.157Z,97651.81
2022-12-23T14:38:04.886Z,97645.34
2022-12-23T14:40:52.450Z,97645.53
2022-12-23T14:43:30.597Z,97645.94
2022-12-23T14:45:59.990Z,97640.47
2022-12-23T14:48:46.722Z,97640.25
2022-12-23T14:51:14.348Z,97645.28
2022-12-23T14:54:00.826Z,97644.50
2022-12-23T14:56:51.582Z,97641.91
2022-12-23T14:59:19.220Z,97636.88
2022-12-23T15:01:50.480Z,97634.63
2022-12-23T15:04:19.723Z,97635.84
2022-12-23T15:06:52.145Z,97642.34
2022-12-23T15:09:24.970Z,97637.72
2022-12-23T15:11:52.864Z,97640.97
2022-12-23T15:14:31.450Z,97638.78
2022-12-23T15:16:58.306Z,97640.00
2022-12-23T15:19:27.479Z,97646.66
2022-12-23T15:22:22.325Z,97635.16
2022-12-23T15:24:52.249Z,97632.91
2022-12-23T15:27:29.767Z,97648.63
2022-12-23T15:29:57.785Z,97650.50
2022-12-23T15:32:25.438Z,97650.44
2022-12-23T15:34:55.014Z,97647.44
2022-12-23T15:37:27.586Z,97648.47
2022-12-23T15:40:03.373Z,97657.75
2022-12-23T15:42:38.304Z,97653.13
2022-12-23T15:45:38.656Z,97648.66
2022-12-23T15:48:21.932Z,97652.50
2022-12-23T15:50:50.002Z,97651.50
2022-12-23T15:53:18.930Z,97649.88
2022-12-23T15:55:48.870Z,97648.28
2022-12-23T15:58:20.475Z,97656.50
2022-12-23T16:00:57.595Z,97666.03
2022-12-23T16:03:34.136Z,97666.63
2022-12-23T16:06:16.764Z,97661.19
2022-12-23T16:08:45.730Z,97659.78
2022-12-23T16:11:16.373Z,97647.66
2022-12-23T16:14:00.247Z,97654.75
2022-12-23T16:16:39.212Z,97661.81
2022-12-23T16:19:06.768Z,97650.72
2022-12-23T16:21:36.509Z,97648.69
2022-12-23T16:24:08.733Z,97665.47
2022-12-23T16:26:42.303Z,97657.41
2022-12-23T16:29:10.301Z,97654.03
2022-12-23T16:31:45.702Z,97647.66
2022-12-23T16:34:17.030Z,97660.94
2022-12-23T16:36:43.674Z,97649.69
2022-12-23T16:39:25.929Z,97655.75
2022-12-23T16:41:52.529Z,97648.91
2022-12-23T16:44:19.378Z,97645.88
2022-12-23T16:46:49.641Z,97648.09
2022-12-23T16:49:19.475Z,97636.59
2022-12-23T16:51:46.886Z,97637.59
2022-12-23T16:54:16.495Z,97642.22
2022-12-23T16:56:46.964Z,97648.47
2022-12-23T16:59:14.417Z,97645.47
2022-12-23T17:01:45.327Z,97643.66
2022-12-23T17:04:12.702Z,97649.09
2022-12-23T17:06:40.738Z,97648.50
2022-12-23T17:09:10.175Z,97645.28
2022-12-23T17:11:42.564Z,97650.94
2022-12-23T17:14:16.404Z,97652.34
2022-12-23T17:16:43.637Z,97644.47
2022-12-23T17:19:11.463Z,97646.69
2022-12-23T17:21:39.711Z,97644.28
2022-12-23T17:24:14.125Z,97643.25
2022-12-23T17:26:40.738Z,97642.88
2022-12-23T17:29:07.495Z,97646.09
2022-12-23T17:31:34.480Z,97641.66
2022-12-23T17:34:02.073Z,97638.03
2022-12-23T17:36:29.228Z,97635.63
2022-12-23T17:38:56.001Z,97632.41
2022-12-23T17:41:28.271Z,97635.59
2022-12-23T17:43:55.676Z,97644.66
2022-12-23T17:46:22.776Z,97642.25
2022-12-23T17:48:49.924Z,97634.78
2022-12-23T17:51:18.853Z,97641.44
2022-12-23T17:53:50.289Z,97640.22
2022-12-23T17:56:20.414Z,97623.66
2022-12-23T17:58:49.157Z,97614.38
2022-12-23T18:01:32.168Z,97617.56
2022-12-23T18:04:00.014Z,97616.13
2022-12-23T18:06:30.048Z,97614.28
2022-12-23T18:08:57.566Z,97619.91
2022-12-23T18:11:42.005Z,97617.50
2022-12-23T18:14:16.346Z,97608.00
2022-12-23T18:16:43.241Z,97601.53
2022-12-23T18:19:17.719Z,97602.38
2022-12-23T18:21:44.506Z,97595.69
2022-12-23T18:24:11.149Z,97603.81
2022-12-23T18:26:38.051Z,97587.50
2022-12-23T18:29:04.723Z,97587.31
2022-12-23T18:31:31.598Z,97577.03
2022-12-23T18:33:59.804Z,97566.31
2022-12-23T18:36:29.057Z,97571.53
2022-12-23T18:38:57.273Z,97573.16
2022-12-23T18:41:25.234Z,97571.38
2022-12-23T18:43:52.709Z,97566.97
2022-12-23T18:46:20.928Z,97576.28
2022-12-23T18:48:48.319Z,97571.69
2022-12-23T18:51:17.526Z,97557.16
2022-12-23T18:53:44.637Z,97566.88
2022-12-23T18:56:14.283Z,97572.31
2022-12-23T18:58:41.022Z,97543.47
2022-12-23T19:01:12.845Z,97557.59
2022-12-23T19:03:40.329Z,97545.50
2022-12-23T19:06:08.746Z,97534.97
2022-12-23T19:08:37.103Z,97532.31
2022-12-23T19:11:13.855Z,97523.22
2022-12-23T19:13:40.605Z,97530.44
2022-12-23T19:16:07.487Z,97534.84
2022-12-23T19:18:34.234Z,97521.91
2022-12-23T19:21:04.142Z,97529.31
2022-12-23T19:23:30.809Z,97523.81
2022-12-23T19:25:57.465Z,97526.28
2022-12-23T19:28:24.390Z,97526.94
2022-12-23T19:30:51.154Z,97526.50
2022-12-23T19:33:17.943Z,97518.66
2022-12-23T19:35:44.732Z,97525.16
2022-12-23T19:38:12.435Z,97527.72
2022-12-23T19:40:40.053Z,97532.69
2022-12-23T19:43:07.199Z,97531.47
2022-12-23T19:45:34.033Z,97536.72
2022-12-23T19:48:00.667Z,97528.22
2022-12-23T19:50:28.219Z,97514.75
2022-12-23T19:52:56.448Z,97513.41
2022-12-23T19:55:24.036Z,97506.66
2022-12-23T19:57:51.791Z,97505.47
2022-12-23T20:00:18.619Z,97509.84
2022-12-23T20:02:45.311Z,97512.75
2022-12-23T20:05:12.029Z,97508.38
2022-12-23T20:07:38.793Z,97510.22
2022-12-23T20:10:06.601Z,97506.00
2022-12-23T20:12:33.283Z,97509.31
2022-12-23T20:14:59.921Z,97510.09
2022-12-23T20:17:26.705Z,97512.34
2022-12-23T20:19:53.354Z,97512.25
2022-12-23T20:22:20.079Z,97517.91
2022-12-23T20:24:46.696Z,97520.34
2022-12-23T20:27:15.636Z,97533.47
2022-12-23T20:29:42.765Z,97528.44
2022-12-23T20:32:12.611Z,97527.03
2022-12-23T20:34:40.318Z,97520.78
2022-12-23T20:37:07.858Z,97521.16
2022-12-23T20:39:34.796Z,97515.69
2022-12-23T20:42:01.455Z,97508.09
2022-12-23T20:44:36.862Z,97515.78
2022-12-23T20:47:06.098Z,97518.63
2022-12-23T20:49:33.010Z,97518.22
2022-12-23T20:51:59.817Z,97520.88
2022-12-23T20:54:32.767Z,97518.19
2022-12-23T20:57:04.692Z,97515.13
2022-12-23T20:59:31.316Z,97519.25
2022-12-23T21:01:59.314Z,97518.94
2022-12-23T21:04:26.547Z,97509.53
2022-12-23T21:06:53.308Z,97510.75
2022-12-23T21:09:20.059Z,97493.03
2022-12-23T21:11:47.747Z,97500.53
2022-12-23T21:14:15.167Z,97503.19
2022-12-23T21:16:42.048Z,97503.63
2022-12-23T21:19:13.683Z,97506.25
2022-12-23T21:21:40.320Z,97502.81
2022-12-23T21:24:07.219Z,97503.22
2022-12-23T21:26:34.701Z,97507.25
2022-12-23T21:29:04.116Z,97507.63
2022-12-23T21:31:32.550Z,97504.00
2022-12-23T21:33:59.323Z,97519.53
2022-12-23T21:36:30.998Z,97514.88
2022-12-23T21:38:59.230Z,97538.31
2022-12-23T21:41:29.325Z,97554.03
2022-12-23T21:43:57.948Z,97546.56
2022-12-23T21:46:25.772Z,97561.28
2022-12-23T21:48:55.149Z,97564.97
2022-12-23T21:51:25.779Z,97559.50
2022-12-23T21:53:55.021Z,97576.25
2022-12-23T21:56:25.230Z,97591.63
2022-12-23T21:59:01.893Z,97598.75
2022-12-23T22:01:29.306Z,97596.31
2022-12-23T22:03:56.976Z,97611.00
2022-12-23T22:06:27.412Z,97606.97
2022-12-23T22:08:55.298Z,97621.22
2022-12-23T22:11:25.447Z,97625.22
2022-12-23T22:13:52.876Z,97619.38
2022-12-23T22:16:22.910Z,97622.69
2022-12-23T22:18:50.700Z,97626.38
2022-12-23T22:21:20.412Z,97602.06
2022-12-23T22:23:48.024Z,97591.03
2022-12-23T22:26:22.315Z,97596.88
2022-12-23T22:28:51.163Z,97582.97
2022-12-23T22:31:19.556Z,97591.13
2022-12-23T22:33:46.524Z,97598.38
2022-12-23T22:36:14.843Z,97586.09
2022-12-23T22:38:43.052Z,97595.16
2022-12-23T22:41:10.789Z,97588.16
2022-12-23T22:43:37.767Z,97577.94
2022-12-23T22:46:05.522Z,97585.63
2022-12-23T22:48:32.530Z,97586.66
2022-12-23T22:51:13.021Z,97585.38
2022-12-23T22:53:39.693Z,97596.50
2022-12-23T22:56:07.089Z,97588.94
2022-12-23T22:58:34.153Z,97601.66
2022-12-23T23:01:01.414Z,97603.16
2022-12-23T23:03:28.574Z,97610.97
2022-12-23T23:06:07.975Z,97613.81
2022-12-23T23:08:35.068Z,97615.31
2022-12-23T23:11:04.595Z,97618.75
2022-12-23T23:13:33.918Z,97621.28
2022-12-23T23:16:01.506Z,97628.06
2022-12-23T23:18:29.591Z,97643.31
2022-12-23T23:20:56.571Z,97656.63
2022-12-23T23:23:23.304Z,97676.25
2022-12-23T23:25:50.019Z,97674.34
2022-12-23T23:28:16.928Z,97681.78
2022-12-23T23:30:43.954Z,97679.25
2022-12-23T23:33:10.878Z,97680.88
2022-12-23T23:35:37.773Z,97675.59
2022-12-23T23:38:04.440Z,97675.47
2022-12-23T23:40:31.355Z,97677.09
2022-12-23T23:42:58.040Z,97683.75
2022-12-23T23:45:24.905Z,97693.38
2022-12-23T23:47:51.616Z,97697.84
2022-12-23T23:50:18.330Z,97700.63
2022-12-23T23:52:45.089Z,97695.09
2022-12-23T23:55:12.075Z,97684.88
2022-12-23T23:57:38.911Z,97687.75
